Összefoglaló Pér: 

VentuSky:

Felhőkép magyaroszág: 

 

 

Keresés

Felhőkép 

Felhőkép

Széltérkép

Széltérkép

Győr-Pér Repülőtér

Élő webkamera kép

 Nagyobb kép

Győr-Pér Repülőtér

[Source: ADDS]
METAR
LHPR 181245Z 01004KT 320V060 CAVOK 06/M01 Q1023 RMK BLU =
LHPR 181115Z 1812/1821 VRB03KT CAVOK
TAF
LHPR 181115Z 1812/1821 VRB03KT CAVOK =
SR / SS: 05:58 / 15:09 UTC (Napkelte / Napnyugta 2018-11-18)

Kapcsolat

Telephely:     9099 Pér, Repülõtér

Klubhelyiség: 9021 Gyõr, Városház tér 3.

E-mail: info@aeroclub-gyor.hu

Telefon: 06-20-777-9106

Adószám: 19113832-2-08

  
Joomla űrlapépítő by JoomlaShine
JSN Metro template designed by JoomlaShine.com